Time,TemperatureF,DewpointF,PressureIn,WindDirection,WindDirectionDegrees,WindSpeedMPH,WindSpeedGustMPH,Humidity,HourlyPrecipIn,Conditions,Clouds,dailyrainin,SoftwareType,DateUTC
2013-02-13 00:00:00,12.1,9.0,29.48,SSW,197,11.0,11.0,87,0.00,,,0.00,Wunderground v.1.15,2013-02-13 09:00:00,
2013-02-13 00:10:00,12.3,9.2,29.48,South,183,10.0,11.0,87,0.00,,,0.00,Wunderground v.1.15,2013-02-13 09:10:00,
2013-02-13 00:15:00,12.4,9.3,29.48,South,180,9.0,11.0,87,0.00,,,0.00,Wunderground v.1.15,2013-02-13 09:15:00,
2013-02-13 00:25:00,12.6,9.5,29.48,South,177,9.0,11.0,87,0.00,,,0.00,Wunderground v.1.15,2013-02-13 09:25:00,
2013-02-13 00:35:00,12.6,9.5,29.48,South,183,7.0,9.0,87,0.00,,,0.00,Wunderground v.1.15,2013-02-13 09:35:00,
2013-02-13 00:45:00,12.4,9.3,29.48,South,183,0.0,3.0,87,0.00,,,0.00,Wunderground v.1.15,2013-02-13 09:45:00,
2013-02-13 00:50:00,12.6,9.5,29.48,ESE,111,0.0,1.0,87,0.00,,,0.00,Wunderground v.1.15,2013-02-13 09:50:00,
2013-02-13 01:00:00,12.8,9.7,29.48,ESE,111,0.0,0.0,87,0.00,,,0.00,Wunderground v.1.15,2013-02-13 10:00:00,
2013-02-13 01:10:00,13.1,9.7,29.48,ESE,114,0.0,0.0,86,0.00,,,0.00,Wunderground v.1.15,2013-02-13 10:10:00,
2013-02-13 01:20:00,13.3,9.6,29.47,ESE,114,1.0,2.0,85,0.00,,,0.00,Wunderground v.1.15,2013-02-13 10:20:00,
2013-02-13 01:30:00,13.1,9.4,29.47,ESE,114,1.0,1.0,85,0.00,,,0.00,Wunderground v.1.15,2013-02-13 10:30:00,
2013-02-13 01:40:00,12.9,9.2,29.47,ESE,114,0.0,0.0,85,0.00,,,0.00,Wunderground v.1.15,2013-02-13 10:40:00,
2013-02-13 01:50:00,12.3,8.4,29.47,ESE,114,0.0,0.0,84,0.00,,,0.00,Wunderground v.1.15,2013-02-13 10:50:00,
2013-02-13 02:00:00,12.1,8.5,29.47,ESE,114,0.0,0.0,85,0.00,,,0.00,Wunderground v.1.15,2013-02-13 11:00:00,
2013-02-13 02:10:00,12.3,8.9,29.47,ESE,114,0.0,0.0,86,0.00,,,0.00,Wunderground v.1.15,2013-02-13 11:10:00,
2013-02-13 02:15:00,12.4,9.0,29.47,ESE,114,0.0,1.0,86,0.00,,,0.00,Wunderground v.1.15,2013-02-13 11:15:00,
2013-02-13 02:25:00,12.8,9.1,29.47,ESE,114,1.0,1.0,85,0.00,,,0.00,Wunderground v.1.15,2013-02-13 11:25:00,
2013-02-13 02:35:00,13.6,10.2,29.47,East,83,1.0,2.0,86,0.00,,,0.00,Wunderground v.1.15,2013-02-13 11:35:00,
2013-02-13 02:45:00,14.0,10.6,29.46,ENE,77,1.0,2.0,86,0.00,,,0.00,Wunderground v.1.15,2013-02-13 11:45:00,
2013-02-13 02:55:00,14.3,10.6,29.46,ENE,77,1.0,2.0,85,0.00,,,0.00,Wunderground v.1.15,2013-02-13 11:55:00,
2013-02-13 03:05:00,14.6,10.9,29.46,ENE,77,0.0,1.0,85,0.00,,,0.00,Wunderground v.1.15,2013-02-13 12:05:00,
2013-02-13 03:15:00,14.9,11.2,29.46,ENE,77,0.0,2.0,85,0.00,,,0.00,Wunderground v.1.15,2013-02-13 12:15:00,
2013-02-13 03:25:00,14.6,11.2,29.46,ENE,77,0.0,0.0,86,0.00,,,0.00,Wunderground v.1.15,2013-02-13 12:25:00,
2013-02-13 03:35:00,14.6,11.2,29.46,ENE,77,0.0,1.0,86,0.00,,,0.00,Wunderground v.1.15,2013-02-13 12:35:00,
2013-02-13 03:40:00,14.4,11.2,29.46,ENE,77,0.0,0.0,87,0.00,,,0.00,Wunderground v.1.15,2013-02-13 12:40:00,
2013-02-13 03:50:00,14.3,11.1,29.46,ENE,77,1.0,1.0,87,0.00,,,0.00,Wunderground v.1.15,2013-02-13 12:50:00,
2013-02-13 04:00:00,14.0,10.8,29.46,ENE,77,1.0,1.0,87,0.00,,,0.00,Wunderground v.1.15,2013-02-13 13:00:00,
2013-02-13 04:05:00,14.0,10.8,29.46,ENE,77,1.0,1.0,87,0.00,,,0.00,Wunderground v.1.15,2013-02-13 13:05:00,
2013-02-13 04:15:00,14.0,11.1,29.46,ENE,77,1.0,2.0,88,0.00,,,0.00,Wunderground v.1.15,2013-02-13 13:15:00,
2013-02-13 04:25:00,14.3,11.4,29.46,ENE,77,1.0,2.0,88,0.00,,,0.00,Wunderground v.1.15,2013-02-13 13:25:00,
2013-02-13 04:30:00,14.4,11.5,29.45,ENE,77,1.0,1.0,88,0.00,,,0.00,Wunderground v.1.15,2013-02-13 13:30:00,
2013-02-13 04:40:00,14.6,11.7,29.45,ENE,77,1.0,2.0,88,0.00,,,0.00,Wunderground v.1.15,2013-02-13 13:40:00,
2013-02-13 04:49:00,15.1,12.4,29.45,ENE,77,2.0,2.0,89,0.00,,,0.00,Wunderground v.1.15,2013-02-13 13:49:00,
2013-02-13 04:55:00,15.2,12.5,29.45,ENE,77,2.0,2.0,89,0.00,,,0.00,Wunderground v.1.15,2013-02-13 13:55:00,
2013-02-13 05:05:00,15.4,12.7,29.45,ENE,77,1.0,2.0,89,0.00,,,0.00,Wunderground v.1.15,2013-02-13 14:05:00,
2013-02-13 05:14:00,15.6,12.9,29.44,ENE,77,1.0,1.0,89,0.00,,,0.00,Wunderground v.1.15,2013-02-13 14:14:00,
2013-02-13 05:20:00,15.7,13.0,29.44,ENE,77,1.0,2.0,89,0.00,,,0.00,Wunderground v.1.15,2013-02-13 14:20:00,
2013-02-13 05:30:00,16.1,13.7,29.44,NE,40,2.0,2.0,90,0.00,,,0.00,Wunderground v.1.15,2013-02-13 14:30:00,
2013-02-13 05:40:00,16.4,14.0,29.44,NE,40,1.0,1.0,90,0.00,,,0.00,Wunderground v.1.15,2013-02-13 14:40:00,
2013-02-13 05:49:00,16.9,14.2,29.44,SSW,211,3.0,6.0,89,0.00,,,0.00,Wunderground v.1.15,2013-02-13 14:49:00,
2013-02-13 05:55:00,16.9,14.2,29.44,SW,222,8.0,8.0,89,0.00,,,0.00,Wunderground v.1.15,2013-02-13 14:55:00,
2013-02-13 06:05:00,16.5,13.8,29.44,SSW,197,7.0,8.0,89,0.00,,,0.00,Wunderground v.1.15,2013-02-13 15:05:00,
2013-02-13 06:15:00,16.2,13.5,29.44,South,187,7.0,7.0,89,0.00,,,0.00,Wunderground v.1.15,2013-02-13 15:15:00,
2013-02-13 06:25:00,15.9,13.2,29.44,South,180,5.0,6.0,89,0.00,,,0.00,Wunderground v.1.15,2013-02-13 15:25:00,
2013-02-13 06:35:00,15.6,12.9,29.43,South,184,6.0,7.0,89,0.00,,,0.00,Wunderground v.1.15,2013-02-13 15:35:00,
2013-02-13 06:44:00,15.2,12.3,29.44,SW,220,10.0,13.0,88,0.00,,,0.00,Wunderground v.1.15,2013-02-13 15:44:00,
2013-02-13 06:50:00,12.6,8.7,29.44,WSW,242,12.0,12.0,84,0.00,,,0.00,Wunderground v.1.15,2013-02-13 15:50:00,
2013-02-13 07:00:00,9.7,5.8,29.45,SSW,211,12.0,17.0,84,0.00,,,0.00,Wunderground v.1.15,2013-02-13 16:00:00,
2013-02-13 07:09:00,7.7,2.8,29.45,SSW,200,14.0,14.0,80,0.00,,,0.00,Wunderground v.1.15,2013-02-13 16:09:00,
2013-02-13 07:15:00,7.4,2.5,29.47,SSW,198,11.0,14.0,80,0.00,,,0.00,Wunderground v.1.15,2013-02-13 16:15:00,
2013-02-13 07:25:00,6.9,1.8,29.47,SSW,198,12.0,12.0,79,0.00,,,0.00,Wunderground v.1.15,2013-02-13 16:25:00,
2013-02-13 07:35:00,6.3,1.2,29.48,SSW,196,12.0,18.0,79,0.00,,,0.00,Wunderground v.1.15,2013-02-13 16:35:00,
2013-02-13 07:45:00,5.0,-2.1,29.48,SSW,203,14.0,14.0,72,0.00,,,0.00,Wunderground v.1.15,2013-02-13 16:45:00,
2013-02-13 07:55:00,2.8,-4.2,29.48,SW,221,9.0,12.0,72,0.00,,,0.00,Wunderground v.1.15,2013-02-13 16:55:00,
2013-02-13 08:05:00,0.3,-6.0,29.49,SSW,201,6.0,7.0,74,0.00,,,0.00,Wunderground v.1.15,2013-02-13 17:05:00,
2013-02-13 08:15:00,-1.6,-7.9,29.49,SSW,204,6.0,6.0,74,0.00,,,0.00,Wunderground v.1.15,2013-02-13 17:15:00,
2013-02-13 08:25:00,-3.3,-9.2,29.49,SSW,203,3.0,5.0,75,0.00,,,0.00,Wunderground v.1.15,2013-02-13 17:25:00,
2013-02-13 08:34:00,-3.9,-9.6,29.50,South,183,2.0,2.0,76,0.00,,,0.00,Wunderground v.1.15,2013-02-13 17:34:00,
2013-02-13 08:40:00,-3.9,-9.6,29.50,South,183,1.0,1.0,76,0.00,,,0.00,Wunderground v.1.15,2013-02-13 17:40:00,
2013-02-13 08:50:00,-2.2,-7.6,29.50,SSE,156,5.0,5.0,77,0.00,,,0.00,Wunderground v.1.15,2013-02-13 17:50:00,
2013-02-13 09:00:00,-2.2,-8.5,29.50,SSE,156,4.0,4.0,74,0.00,,,0.00,Wunderground v.1.15,2013-02-13 18:00:00,
2013-02-13 09:10:00,-1.6,-7.3,29.50,SSE,156,5.0,7.0,76,0.00,,,0.00,Wunderground v.1.15,2013-02-13 18:10:00,
2013-02-13 09:20:00,-1.4,-7.4,29.51,SSE,156,6.0,8.0,75,0.00,,,0.00,Wunderground v.1.15,2013-02-13 18:20:00,
2013-02-13 09:30:00,-1.0,-6.7,29.51,SSE,148,8.0,8.0,76,0.00,,,0.00,Wunderground v.1.15,2013-02-13 18:30:00,
2013-02-13 09:39:00,-0.8,-6.5,29.51,SSE,156,11.0,12.0,76,0.00,,,0.00,Wunderground v.1.15,2013-02-13 18:39:00,
2013-02-13 09:45:00,-0.4,-5.9,29.51,SSE,155,11.0,12.0,77,0.00,,,0.00,Wunderground v.1.15,2013-02-13 18:45:00,
2013-02-13 09:55:00,-0.8,-6.5,29.51,SSE,153,7.0,11.0,76,0.00,,,0.00,Wunderground v.1.15,2013-02-13 18:55:00,
2013-02-13 10:05:00,-0.6,-6.4,29.51,SSE,156,9.0,11.0,76,0.00,,,0.00,Wunderground v.1.15,2013-02-13 19:05:00,
2013-02-13 10:14:00,-0.4,-5.9,29.52,SSE,156,10.0,10.0,77,0.00,,,0.00,Wunderground v.1.15,2013-02-13 19:14:00,
2013-02-13 10:20:00,-0.4,-5.9,29.52,SSE,156,10.0,15.0,77,0.00,,,0.00,Wunderground v.1.15,2013-02-13 19:20:00,
2013-02-13 10:30:00,0.1,-5.1,29.52,SSE,152,13.0,13.0,78,0.00,,,0.00,Wunderground v.1.15,2013-02-13 19:30:00,
2013-02-13 10:40:00,0.1,-5.1,29.52,SSE,156,11.0,13.0,78,0.00,,,0.00,Wunderground v.1.15,2013-02-13 19:40:00,
2013-02-13 10:50:00,-0.2,-5.7,29.52,SSE,155,10.0,11.0,77,0.00,,,0.00,Wunderground v.1.15,2013-02-13 19:50:00,
2013-02-13 11:00:00,0.1,-5.1,29.52,SSE,156,10.0,13.0,78,0.00,,,0.00,Wunderground v.1.15,2013-02-13 20:00:00,
2013-02-13 11:10:00,0.1,-5.1,29.52,SSE,156,12.0,12.0,78,0.00,,,0.00,Wunderground v.1.15,2013-02-13 20:10:00,
2013-02-13 11:20:00,0.1,-5.1,29.52,SSE,153,11.0,13.0,78,0.00,,,0.00,Wunderground v.1.15,2013-02-13 20:20:00,
2013-02-13 11:30:00,0.5,-4.7,29.52,SSE,156,13.0,14.0,78,0.00,,,0.00,Wunderground v.1.15,2013-02-13 20:30:00,
2013-02-13 11:39:00,0.0,-5.2,29.52,SSE,164,11.0,12.0,78,0.00,,,0.00,Wunderground v.1.15,2013-02-13 20:39:00,
2013-02-13 11:45:00,0.1,-5.1,29.53,SSE,163,11.0,16.0,78,0.00,,,0.00,Wunderground v.1.15,2013-02-13 20:45:00,
2013-02-13 11:55:00,0.5,-4.7,29.53,SSE,156,12.0,12.0,78,0.00,,,0.00,Wunderground v.1.15,2013-02-13 20:55:00,
2013-02-13 12:05:00,0.7,-4.3,29.53,SSE,159,15.0,15.0,79,0.00,,,0.00,Wunderground v.1.15,2013-02-13 21:05:00,
2013-02-13 12:14:00,0.9,-4.1,29.53,SSE,157,14.0,17.0,79,0.00,,,0.00,Wunderground v.1.15,2013-02-13 21:14:00,
2013-02-13 12:20:00,0.9,-4.1,29.53,SSE,162,11.0,11.0,79,0.00,,,0.00,Wunderground v.1.15,2013-02-13 21:20:00,
2013-02-13 12:30:00,0.7,-4.6,29.53,SSE,156,12.0,12.0,78,0.00,,,0.00,Wunderground v.1.15,2013-02-13 21:30:00,
2013-02-13 12:40:00,0.5,-4.7,29.53,SSE,155,9.0,13.0,78,0.00,,,0.00,Wunderground v.1.15,2013-02-13 21:40:00,
2013-02-13 12:50:00,0.5,-4.7,29.53,SSE,159,12.0,12.0,78,0.00,,,0.00,Wunderground v.1.15,2013-02-13 21:50:00,
2013-02-13 13:00:00,0.3,-4.9,29.53,South,172,14.0,17.0,78,0.00,,,0.00,Wunderground v.1.15,2013-02-13 22:00:00,
2013-02-13 13:10:00,0.5,-4.5,29.53,SSE,166,13.0,16.0,79,0.00,,,0.00,Wunderground v.1.15,2013-02-13 22:10:00,
2013-02-13 13:20:00,0.5,-4.7,29.53,South,174,14.0,18.0,78,0.00,,,0.00,Wunderground v.1.15,2013-02-13 22:20:00,
2013-02-13 13:30:00,0.5,-4.7,29.53,South,179,15.0,15.0,78,0.00,,,0.00,Wunderground v.1.15,2013-02-13 22:30:00,
2013-02-13 13:40:00,0.3,-4.9,29.53,South,173,16.0,16.0,78,0.00,,,0.00,Wunderground v.1.15,2013-02-13 22:40:00,
2013-02-13 13:50:00,0.1,-5.1,29.53,SSE,167,15.0,15.0,78,0.00,,,0.00,Wunderground v.1.15,2013-02-13 22:50:00,
2013-02-13 14:00:00,0.1,-5.1,29.53,SSE,167,14.0,16.0,78,0.00,,,0.00,Wunderground v.1.15,2013-02-13 23:00:00,
2013-02-13 14:09:00,0.1,-5.1,29.53,South,169,17.0,17.0,78,0.00,,,0.00,Wunderground v.1.15,2013-02-13 23:09:00,
2013-02-13 14:15:00,0.1,-5.1,29.53,South,173,18.0,18.0,78,0.00,,,0.00,Wunderground v.1.15,2013-02-13 23:15:00,
2013-02-13 14:24:00,0.0,-5.2,29.53,South,177,17.0,18.0,78,0.00,,,0.00,Wunderground v.1.15,2013-02-13 23:24:00,
2013-02-13 14:30:00,0.0,-5.2,29.53,South,183,17.0,17.0,78,0.00,,,0.00,Wunderground v.1.15,2013-02-13 23:30:00,
2013-02-13 14:40:00,-0.2,-5.7,29.53,South,176,17.0,20.0,77,0.00,,,0.00,Wunderground v.1.15,2013-02-13 23:40:00,
2013-02-13 14:50:00,-0.4,-5.9,29.53,South,181,17.0,17.0,77,0.00,,,0.00,Wunderground v.1.15,2013-02-13 23:50:00,
2013-02-13 15:00:00,-0.4,-5.9,29.53,South,181,18.0,19.0,77,0.00,,,0.00,Wunderground v.1.15,2013-02-14 00:00:00,
2013-02-13 15:10:00,-0.4,-5.9,29.53,South,184,17.0,18.0,77,0.00,,,0.00,Wunderground v.1.15,2013-02-14 00:10:00,
2013-02-13 15:20:00,-0.2,-5.4,29.53,South,180,17.0,21.0,78,0.00,,,0.00,Wunderground v.1.15,2013-02-14 00:20:00,
2013-02-13 15:30:00,0.0,-5.2,29.53,South,177,17.0,17.0,78,0.00,,,0.00,Wunderground v.1.15,2013-02-14 00:30:00,
2013-02-13 15:40:00,0.0,-5.0,29.53,South,181,17.0,17.0,79,0.00,,,0.00,Wunderground v.1.15,2013-02-14 00:40:00,
2013-02-13 15:50:00,0.0,-5.0,29.53,South,174,17.0,17.0,79,0.00,,,0.00,Wunderground v.1.15,2013-02-14 00:50:00,
2013-02-13 16:00:00,0.0,-5.0,29.54,South,172,15.0,17.0,79,0.00,,,0.00,Wunderground v.1.15,2013-02-14 01:00:00,
2013-02-13 16:10:00,0.0,-5.0,29.54,South,176,14.0,14.0,79,0.00,,,0.00,Wunderground v.1.15,2013-02-14 01:10:00,
2013-02-13 16:15:00,0.0,-5.0,29.54,SSE,166,14.0,16.0,79,0.00,,,0.00,Wunderground v.1.15,2013-02-14 01:15:00,
2013-02-13 16:24:00,0.0,-5.0,29.54,South,177,15.0,15.0,79,0.00,,,0.00,Wunderground v.1.15,2013-02-14 01:24:00,
2013-02-13 16:30:00,0.0,-5.0,29.54,South,181,14.0,14.0,79,0.00,,,0.00,Wunderground v.1.15,2013-02-14 01:30:00,
2013-02-13 16:40:00,0.1,-4.9,29.54,South,176,13.0,14.0,79,0.00,,,0.00,Wunderground v.1.15,2013-02-14 01:40:00,
2013-02-13 16:50:00,0.0,-5.0,29.54,South,179,15.0,15.0,79,0.00,,,0.00,Wunderground v.1.15,2013-02-14 01:50:00,
2013-02-13 17:00:00,-0.2,-5.2,29.55,South,187,14.0,14.0,79,0.00,,,0.00,Wunderground v.1.15,2013-02-14 02:00:00,
2013-02-13 17:10:00,-0.2,-5.2,29.55,South,177,14.0,14.0,79,0.00,,,0.00,Wunderground v.1.15,2013-02-14 02:10:00,
2013-02-13 17:19:00,0.0,-5.0,29.55,South,169,13.0,14.0,79,0.00,,,0.00,Wunderground v.1.15,2013-02-14 02:19:00,
2013-02-13 17:25:00,0.0,-5.0,29.55,South,169,14.0,14.0,79,0.00,,,0.00,Wunderground v.1.15,2013-02-14 02:25:00,
2013-02-13 17:34:00,0.0,-5.0,29.55,SSE,167,15.0,16.0,79,0.00,,,0.00,Wunderground v.1.15,2013-02-14 02:34:00,
2013-02-13 17:40:00,0.0,-5.0,29.55,South,172,15.0,15.0,79,0.00,,,0.00,Wunderground v.1.15,2013-02-14 02:40:00,
2013-02-13 17:49:00,-0.2,-5.2,29.56,SSE,164,14.0,16.0,79,0.00,,,0.00,Wunderground v.1.15,2013-02-14 02:49:00,
2013-02-13 17:55:00,0.0,-5.0,29.56,South,174,14.0,16.0,79,0.00,,,0.00,Wunderground v.1.15,2013-02-14 02:55:00,
2013-02-13 18:04:00,-0.2,-5.2,29.56,South,173,13.0,16.0,79,0.00,,,0.00,Wunderground v.1.15,2013-02-14 03:04:00,
2013-02-13 18:09:00,0.0,-5.0,29.56,South,173,12.0,13.0,79,0.00,,,0.00,Wunderground v.1.15,2013-02-14 03:09:00,
2013-02-13 18:15:00,-0.2,-5.2,29.56,SSE,166,13.0,17.0,79,0.00,,,0.00,Wunderground v.1.15,2013-02-14 03:15:00,
2013-02-13 18:25:00,0.0,-5.0,29.56,South,170,15.0,18.0,79,0.00,,,0.00,Wunderground v.1.15,2013-02-14 03:25:00,
2013-02-13 18:35:00,0.0,-4.7,29.56,SSE,167,13.0,14.0,80,0.00,,,0.00,Wunderground v.1.15,2013-02-14 03:35:00,
2013-02-13 18:44:00,-0.2,-5.2,29.56,SSE,166,14.0,16.0,79,0.00,,,0.00,Wunderground v.1.15,2013-02-14 03:44:00,
2013-02-13 18:54:00,-0.2,-5.2,29.56,SSE,166,13.0,17.0,79,0.00,,,0.00,Wunderground v.1.15,2013-02-14 03:54:00,
2013-02-13 19:00:00,0.0,-5.0,29.57,South,169,13.0,13.0,79,0.00,,,0.00,Wunderground v.1.15,2013-02-14 04:00:00,
2013-02-13 19:05:00,0.0,-4.7,29.57,SSE,166,14.0,14.0,80,0.00,,,0.00,Wunderground v.1.15,2013-02-14 04:05:00,
2013-02-13 19:15:00,0.0,-4.7,29.57,SSE,164,13.0,17.0,80,0.00,,,0.00,Wunderground v.1.15,2013-02-14 04:15:00,
2013-02-13 19:25:00,0.0,-5.0,29.57,SSE,159,12.0,14.0,79,0.00,,,0.00,Wunderground v.1.15,2013-02-14 04:25:00,
2013-02-13 19:30:00,0.0,-5.0,29.58,SSE,166,12.0,12.0,79,0.00,,,0.00,Wunderground v.1.15,2013-02-14 04:30:00,
2013-02-13 19:40:00,0.0,-5.0,29.58,SSE,167,11.0,11.0,79,0.00,,,0.00,Wunderground v.1.15,2013-02-14 04:40:00,
2013-02-13 19:50:00,0.0,-5.0,29.58,SSE,157,11.0,11.0,79,0.00,,,0.00,Wunderground v.1.15,2013-02-14 04:50:00,
2013-02-13 20:00:00,0.0,-5.0,29.58,SSE,156,9.0,9.0,79,0.00,,,0.00,Wunderground v.1.15,2013-02-14 05:00:00,
2013-02-13 20:05:00,0.0,-5.0,29.58,SSE,155,8.0,10.0,79,0.00,,,0.00,Wunderground v.1.15,2013-02-14 05:05:00,
2013-02-13 20:15:00,0.0,-5.2,29.58,SSE,156,9.0,10.0,78,0.00,,,0.00,Wunderground v.1.15,2013-02-14 05:15:00,
2013-02-13 20:25:00,-0.2,-5.4,29.58,SSE,163,10.0,10.0,78,0.00,,,0.00,Wunderground v.1.15,2013-02-14 05:25:00,
2013-02-13 20:30:00,-0.2,-5.4,29.58,SSE,157,10.0,10.0,78,0.00,,,0.00,Wunderground v.1.15,2013-02-14 05:30:00,
2013-02-13 20:40:00,-0.2,-5.4,29.58,SSE,162,9.0,10.0,78,0.00,,,0.00,Wunderground v.1.15,2013-02-14 05:40:00,
2013-02-13 20:50:00,-0.4,-5.6,29.58,South,173,11.0,11.0,78,0.00,,,0.00,Wunderground v.1.15,2013-02-14 05:50:00,
2013-02-13 20:59:00,-0.6,-5.8,29.58,South,170,10.0,11.0,78,0.00,,,0.00,Wunderground v.1.15,2013-02-14 05:59:00,
2013-02-13 21:09:00,-0.6,-5.8,29.58,South,180,10.0,10.0,78,0.00,,,0.00,Wunderground v.1.15,2013-02-14 06:09:00,
2013-02-13 21:14:00,-0.6,-5.8,29.58,South,183,9.0,10.0,78,0.00,,,0.00,Wunderground v.1.15,2013-02-14 06:14:00,
2013-02-13 21:24:00,-0.8,-6.0,29.58,South,181,9.0,11.0,78,0.00,,,0.00,Wunderground v.1.15,2013-02-14 06:24:00,
2013-02-13 21:34:00,-1.0,-6.5,29.58,South,169,9.0,11.0,77,0.00,,,0.00,Wunderground v.1.15,2013-02-14 06:34:00,
2013-02-13 21:44:00,-1.2,-6.4,29.58,SSE,162,7.0,10.0,78,0.00,,,0.00,Wunderground v.1.15,2013-02-14 06:44:00,
2013-02-13 21:54:00,-1.6,-6.8,29.58,SSE,166,7.0,7.0,78,0.00,,,0.00,Wunderground v.1.15,2013-02-14 06:54:00,
2013-02-13 22:00:00,-2.0,-7.2,29.59,SSE,166,7.0,7.0,78,0.00,,,0.00,Wunderground v.1.15,2013-02-14 07:00:00,
2013-02-13 22:10:00,-2.2,-7.4,29.59,SSE,167,7.0,7.0,78,0.00,,,0.00,Wunderground v.1.15,2013-02-14 07:10:00,
2013-02-13 22:15:00,-2.2,-7.4,29.59,SSE,166,7.0,7.0,78,0.00,,,0.00,Wunderground v.1.15,2013-02-14 07:15:00,
2013-02-13 22:25:00,-2.6,-7.8,29.59,SSE,167,6.0,7.0,78,0.00,,,0.00,Wunderground v.1.15,2013-02-14 07:25:00,
2013-02-13 22:35:00,-2.8,-8.2,29.59,South,169,6.0,6.0,77,0.00,,,0.00,Wunderground v.1.15,2013-02-14 07:35:00,
2013-02-13 22:45:00,-3.1,-8.5,29.59,South,169,6.0,6.0,77,0.00,,,0.00,Wunderground v.1.15,2013-02-14 07:45:00,
2013-02-13 22:50:00,-2.8,-8.0,29.59,South,169,6.0,7.0,78,0.00,,,0.00,Wunderground v.1.15,2013-02-14 07:50:00,
2013-02-13 23:00:00,-2.6,-8.0,29.59,South,170,5.0,5.0,77,0.00,,,0.00,Wunderground v.1.15,2013-02-14 08:00:00,
2013-02-13 23:10:00,-3.5,-8.6,29.59,South,170,1.0,1.0,78,0.00,,,0.00,Wunderground v.1.15,2013-02-14 08:10:00,
2013-02-13 23:20:00,-2.8,-7.7,29.59,South,183,2.0,5.0,79,0.00,,,0.00,Wunderground v.1.15,2013-02-14 08:20:00,
2013-02-13 23:30:00,-2.4,-7.6,29.59,South,183,3.0,4.0,78,0.00,,,0.00,Wunderground v.1.15,2013-02-14 08:30:00,
2013-02-13 23:35:00,-2.4,-7.6,29.59,South,183,2.0,4.0,78,0.00,,,0.00,Wunderground v.1.15,2013-02-14 08:35:00,
2013-02-13 23:45:00,-2.2,-7.1,29.59,South,183,2.0,3.0,79,0.00,,,0.00,Wunderground v.1.15,2013-02-14 08:45:00,
2013-02-13 23:55:00,-2.2,-7.1,29.59,South,183,1.0,2.0,79,0.00,,,0.00,Wunderground v.1.15,2013-02-14 08:55:00,